createdAt,value
2023-04-01T00:01:53.950Z,11.40
2023-04-01T00:06:56.368Z,10.98
2023-04-01T00:11:58.719Z,11.40
2023-04-01T00:17:01.650Z,10.10
2023-04-01T00:22:04.404Z,10.93
2023-04-01T00:27:07.121Z,9.95
2023-04-01T00:32:09.610Z,11.03
2023-04-01T00:37:12.638Z,10.98
2023-04-01T00:42:15.293Z,11.13
2023-04-01T00:47:17.898Z,11.50
2023-04-01T00:52:23.948Z,11.07
2023-04-01T00:57:32.844Z,10.13
2023-04-01T01:02:36.143Z,9.45
2023-04-01T01:13:12.260Z,7.88
2023-04-01T01:18:41.572Z,8.20
2023-04-01T01:24:04.434Z,8.35
2023-04-01T01:29:09.644Z,7.50
2023-04-01T01:34:17.505Z,6.47
2023-04-01T01:39:21.712Z,6.35
2023-04-01T01:44:24.626Z,7.10
2023-04-01T01:49:27.969Z,6.85
2023-04-01T01:54:30.760Z,6.78
2023-04-01T01:59:34.624Z,5.32
2023-04-01T02:04:40.682Z,5.75
2023-04-01T02:09:44.550Z,5.90
2023-04-01T02:19:57.868Z,5.40
2023-04-01T02:25:22.983Z,4.60
2023-04-01T02:30:27.945Z,5.20
2023-04-01T02:35:30.758Z,5.43
2023-04-01T02:41:03.200Z,5.82
2023-04-01T02:46:05.718Z,5.57
2023-04-01T02:51:09.541Z,6.03
2023-04-01T02:56:11.909Z,6.10
2023-04-01T03:01:14.672Z,6.65
2023-04-01T03:06:17.728Z,7.37
2023-04-01T03:16:23.796Z,7.43
2023-04-01T03:21:28.838Z,7.40
2023-04-01T03:31:34.330Z,8.48
2023-04-01T03:36:36.787Z,8.60
2023-04-01T03:41:39.756Z,8.18
2023-04-01T03:46:42.702Z,7.63
2023-04-01T03:51:45.411Z,7.78
2023-04-01T03:56:48.152Z,8.53
2023-04-01T04:01:50.726Z,8.10
2023-04-01T04:06:54.693Z,8.85
2023-04-01T04:11:58.727Z,8.85
2023-04-01T04:17:01.919Z,8.50
2023-04-01T04:22:04.518Z,8.35
2023-04-01T04:27:06.878Z,8.50
2023-04-01T04:32:11.891Z,9.35
2023-04-01T04:37:14.148Z,8.65
2023-04-01T04:42:16.653Z,9.77
2023-04-01T04:47:19.599Z,23.25
2023-04-01T04:52:22.316Z,23.80
2023-04-01T04:57:24.894Z,10.88
2023-04-01T05:02:31.261Z,8.77
2023-04-01T05:07:34.553Z,7.10
2023-04-01T05:12:38.704Z,7.43
2023-04-01T05:17:43.475Z,7.65
2023-04-01T05:22:46.363Z,6.82
2023-04-01T05:27:48.714Z,7.25
2023-04-01T05:32:51.239Z,22.13
2023-04-01T05:37:53.873Z,14.20
2023-04-01T05:42:57.706Z,12.00
2023-04-01T05:48:00.767Z,8.63
2023-04-01T05:53:07.498Z,7.18
2023-04-01T05:58:13.732Z,6.47
2023-04-01T06:03:19.376Z,7.07
2023-04-01T06:08:21.828Z,18.95
2023-04-01T06:13:32.972Z,10.55
2023-04-01T06:18:53.603Z,8.70
2023-04-01T06:24:17.796Z,9.57
2023-04-01T06:29:45.036Z,8.93
2023-04-01T06:35:18.694Z,8.70
2023-04-01T06:40:39.904Z,8.68
2023-04-01T06:45:48.258Z,8.02
2023-04-01T06:51:43.884Z,8.43
2023-04-01T06:57:30.732Z,8.77
2023-04-01T07:02:44.810Z,8.73
2023-04-01T07:07:54.445Z,8.80
2023-04-01T07:13:00.288Z,9.13
2023-04-01T07:18:31.803Z,9.57
2023-04-01T07:23:40.849Z,9.93
2023-04-01T07:28:53.861Z,9.65
2023-04-01T07:34:36.805Z,9.55
2023-04-01T07:39:52.281Z,9.20
2023-04-01T07:45:26.811Z,8.73
2023-04-01T07:50:37.034Z,8.68
2023-04-01T07:55:49.019Z,9.73
2023-04-01T08:01:02.749Z,8.25
2023-04-01T08:06:37.531Z,9.48
2023-04-01T08:12:07.563Z,9.40
2023-04-01T08:17:34.328Z,9.95
2023-04-01T08:22:41.905Z,16.00
2023-04-01T08:27:58.690Z,14.70
2023-04-01T08:33:07.179Z,10.00
2023-04-01T08:38:14.514Z,9.13
2023-04-01T08:43:41.455Z,13.20
2023-04-01T08:48:53.321Z,8.65
2023-04-01T08:54:10.070Z,8.10
2023-04-01T08:59:50.069Z,7.68
2023-04-01T09:05:33.650Z,9.60
2023-04-01T09:10:47.063Z,8.98
2023-04-01T09:16:26.107Z,6.70
2023-04-01T09:22:00.626Z,6.30
2023-04-01T09:27:07.024Z,7.80
2023-04-01T09:32:28.427Z,6.00
2023-04-01T09:37:53.818Z,16.20
2023-04-01T09:43:06.854Z,9.70
2023-04-01T09:48:31.441Z,9.60
2023-04-01T09:59:09.643Z,7.95
2023-04-01T10:05:14.159Z,11.70
2023-04-01T10:10:41.215Z,11.75
2023-04-01T10:15:49.897Z,10.85
2023-04-01T10:21:08.472Z,7.78
2023-04-01T10:26:35.573Z,9.27
2023-04-01T10:32:34.008Z,14.15
2023-04-01T10:38:09.340Z,12.27
2023-04-01T10:43:36.245Z,10.25
2023-04-01T10:48:58.160Z,10.77
2023-04-01T10:54:31.522Z,11.02
2023-04-01T11:00:03.651Z,27.02
2023-04-01T11:05:54.349Z,18.50
2023-04-01T11:11:15.777Z,13.65
2023-04-01T11:16:49.851Z,12.60
2023-04-01T11:21:58.123Z,13.55
2023-04-01T11:27:26.779Z,12.98
2023-04-01T11:32:53.125Z,12.85
2023-04-01T11:38:08.132Z,18.50
2023-04-01T11:43:54.786Z,13.57
2023-04-01T11:49:22.459Z,13.18
2023-04-01T11:54:52.821Z,14.10
2023-04-01T12:00:08.593Z,16.17
2023-04-01T12:05:17.007Z,14.40
2023-04-01T12:10:23.195Z,19.45
2023-04-01T12:15:59.680Z,20.27
2023-04-01T12:21:15.833Z,12.70
2023-04-01T12:26:43.410Z,10.43
2023-04-01T12:32:14.979Z,12.77
2023-04-01T12:37:22.418Z,12.52
2023-04-01T12:42:49.926Z,14.65
2023-04-01T12:48:12.650Z,20.92
2023-04-01T12:53:26.889Z,18.27
2023-04-01T12:58:55.458Z,29.70
2023-04-01T13:04:26.926Z,21.65
2023-04-01T13:09:52.049Z,17.92
2023-04-01T13:15:16.515Z,29.92
2023-04-01T13:20:28.627Z,28.60
2023-04-01T13:25:47.282Z,19.13
2023-04-01T13:30:53.434Z,17.58
2023-04-01T13:36:12.966Z,18.85
2023-04-01T13:41:43.741Z,20.02
2023-04-01T13:46:57.564Z,21.77
2023-04-01T13:52:15.168Z,20.58
2023-04-01T13:57:31.878Z,17.08
2023-04-01T14:02:48.374Z,25.80
2023-04-01T14:08:02.945Z,21.52
2023-04-01T14:13:40.704Z,23.67
2023-04-01T14:18:55.233Z,24.92
2023-04-01T14:24:21.127Z,21.60
2023-04-01T14:29:59.427Z,22.33
2023-04-01T14:35:13.933Z,21.80
2023-04-01T14:40:29.727Z,21.15
2023-04-01T14:45:46.231Z,23.92
2023-04-01T14:50:52.132Z,20.50
2023-04-01T14:55:58.158Z,19.88
2023-04-01T15:01:13.188Z,25.10
2023-04-01T15:06:21.853Z,29.02
2023-04-01T15:12:06.221Z,26.35
2023-04-01T15:17:47.189Z,19.17
2023-04-01T15:23:16.141Z,19.65
2023-04-01T15:28:37.430Z,18.23
2023-04-01T15:33:54.414Z,19.73
2023-04-01T15:39:11.058Z,21.42
2023-04-01T15:44:32.070Z,22.83
2023-04-01T15:49:40.930Z,32.45
2023-04-01T15:55:09.564Z,21.52
2023-04-01T16:00:34.626Z,22.88
2023-04-01T16:05:59.193Z,26.83
2023-04-01T16:11:49.795Z,60.97
2023-04-01T16:17:19.696Z,28.95
2023-04-01T16:22:42.275Z,23.13
2023-04-01T16:28:06.666Z,23.00
2023-04-01T16:33:19.925Z,46.42
2023-04-01T16:38:32.245Z,39.95
2023-04-01T16:43:53.237Z,37.67
2023-04-01T16:49:14.227Z,31.73
2023-04-01T16:54:24.757Z,17.52
2023-04-01T16:59:38.973Z,16.88
2023-04-01T17:04:46.549Z,15.10
2023-04-01T17:10:22.436Z,18.95
2023-04-01T17:15:56.486Z,16.80
2023-04-01T17:21:12.214Z,36.63
2023-04-01T17:26:16.676Z,16.30
2023-04-01T17:31:32.875Z,16.05
2023-04-01T17:36:42.710Z,15.65
2023-04-01T17:42:11.476Z,15.50
2023-04-01T17:47:43.215Z,10.90
2023-04-01T17:52:55.807Z,11.35
2023-04-01T17:58:39.077Z,10.48
2023-04-01T18:04:12.428Z,11.97
2023-04-01T18:09:49.514Z,16.20
2023-04-01T18:15:21.307Z,15.27
2023-04-01T18:20:53.337Z,14.27
2023-04-01T18:26:06.222Z,15.35
2023-04-01T18:31:27.565Z,15.30
2023-04-01T18:36:53.194Z,18.98
2023-04-01T18:42:16.900Z,14.50
2023-04-01T18:47:30.790Z,16.88
2023-04-01T18:52:37.677Z,13.65
2023-04-01T18:57:46.870Z,13.13
2023-04-01T19:03:13.001Z,14.02
2023-04-01T19:08:27.582Z,13.18
2023-04-01T19:13:38.421Z,12.48
2023-04-01T19:18:50.026Z,11.50
2023-04-01T19:24:41.796Z,12.93
2023-04-01T19:30:00.502Z,13.32
2023-04-01T19:35:15.063Z,16.83
2023-04-01T19:40:59.152Z,18.30
2023-04-01T19:46:26.523Z,18.70
2023-04-01T19:51:37.920Z,22.92
2023-04-01T19:56:44.144Z,14.35
2023-04-01T20:01:54.568Z,12.32
2023-04-01T20:07:05.760Z,12.63
2023-04-01T20:12:18.949Z,12.95
2023-04-01T20:17:39.438Z,13.68
2023-04-01T20:22:44.881Z,10.48
2023-04-01T20:27:53.146Z,10.48
2023-04-01T20:33:14.616Z,10.45
2023-04-01T20:38:42.993Z,9.65
2023-04-01T20:44:12.317Z,10.38
2023-04-01T20:49:33.506Z,9.00
2023-04-01T20:54:42.519Z,10.07
2023-04-01T21:00:16.276Z,9.63
2023-04-01T21:05:48.103Z,10.07
2023-04-01T21:11:12.026Z,9.55
2023-04-01T21:21:53.285Z,9.98
2023-04-01T21:27:23.828Z,8.43
2023-04-01T21:32:42.594Z,9.52
2023-04-01T21:38:08.171Z,7.93
2023-04-01T21:43:41.412Z,10.00
2023-04-01T21:49:08.609Z,10.20
2023-04-01T21:54:37.096Z,11.57
2023-04-01T22:00:14.543Z,10.70
2023-04-01T22:05:27.251Z,9.40
2023-04-01T22:11:05.420Z,9.55
2023-04-01T22:16:20.157Z,12.35
2023-04-01T22:21:30.489Z,9.00
2023-04-01T22:26:42.344Z,11.15
2023-04-01T22:31:55.198Z,10.75
2023-04-01T22:37:03.717Z,10.50
2023-04-01T22:42:22.485Z,11.68
2023-04-01T22:47:50.891Z,9.68
2023-04-01T22:53:09.502Z,10.05
2023-04-01T22:58:18.583Z,10.88
2023-04-01T23:03:36.008Z,11.00
2023-04-01T23:09:02.400Z,11.95
2023-04-01T23:14:24.860Z,12.30
2023-04-01T23:19:42.866Z,10.93
2023-04-01T23:24:57.190Z,11.77
2023-04-01T23:29:59.589Z,9.68
2023-04-01T23:35:03.121Z,10.68
2023-04-01T23:40:13.341Z,10.20
2023-04-01T23:45:18.577Z,10.20
2023-04-01T23:50:25.730Z,9.73
2023-04-01T23:55:35.998Z,9.35
